createdAt,value
2017-10-06T00:02:03.474Z,5.47
2017-10-06T00:04:30.108Z,6.20
2017-10-06T00:06:56.715Z,5.72
2017-10-06T00:09:23.335Z,5.37
2017-10-06T00:11:49.958Z,5.50
2017-10-06T00:14:16.572Z,5.47
2017-10-06T00:16:43.271Z,5.40
2017-10-06T00:19:09.904Z,4.95
2017-10-06T00:21:36.515Z,5.10
2017-10-06T00:24:03.124Z,4.70
2017-10-06T00:26:29.751Z,4.55
2017-10-06T00:28:56.363Z,5.30
2017-10-06T00:31:23.009Z,4.43
2017-10-06T00:33:49.638Z,5.43
2017-10-06T00:36:16.286Z,5.37
2017-10-06T00:38:42.891Z,5.18
2017-10-06T00:41:09.523Z,5.90
2017-10-06T00:43:36.202Z,5.03
2017-10-06T00:46:02.823Z,5.80
2017-10-06T00:48:29.447Z,5.32
2017-10-06T00:50:56.062Z,5.40
2017-10-06T00:53:22.671Z,4.60
2017-10-06T00:55:49.307Z,6.72
2017-10-06T00:58:15.973Z,5.60
2017-10-06T01:00:42.595Z,5.95
2017-10-06T01:03:09.234Z,4.45
2017-10-06T01:05:35.852Z,5.57
2017-10-06T01:08:02.497Z,5.30
2017-10-06T01:10:29.111Z,5.57
2017-10-06T01:12:55.723Z,4.40
2017-10-06T01:15:22.346Z,4.45
2017-10-06T01:17:48.964Z,4.75
2017-10-06T01:20:15.570Z,5.70
2017-10-06T01:22:42.202Z,4.93
2017-10-06T01:25:08.811Z,4.30
2017-10-06T01:27:35.422Z,4.40
2017-10-06T01:30:02.044Z,5.82
2017-10-06T01:32:28.656Z,4.80
2017-10-06T01:34:55.275Z,6.00
2017-10-06T01:37:21.955Z,5.10
2017-10-06T01:39:48.576Z,6.15
2017-10-06T01:42:15.195Z,5.07
2017-10-06T01:44:41.825Z,5.32
2017-10-06T01:47:08.511Z,4.93
2017-10-06T01:49:35.144Z,5.65
2017-10-06T01:52:01.767Z,5.35
2017-10-06T01:54:28.426Z,4.55
2017-10-06T01:56:55.052Z,4.80
2017-10-06T01:59:21.668Z,5.82
2017-10-06T02:01:48.280Z,5.70
2017-10-06T02:04:14.903Z,6.30
2017-10-06T02:06:41.622Z,5.00
2017-10-06T02:09:08.242Z,6.05
2017-10-06T02:11:34.907Z,5.70
2017-10-06T02:14:01.527Z,5.45
2017-10-06T02:16:28.143Z,6.10
2017-10-06T02:18:54.767Z,5.50
2017-10-06T02:21:21.376Z,4.95
2017-10-06T02:23:47.980Z,5.25
2017-10-06T02:26:14.611Z,6.15
2017-10-06T02:28:41.219Z,5.85
2017-10-06T02:31:07.831Z,5.40
2017-10-06T02:33:34.468Z,7.47
2017-10-06T02:36:01.187Z,6.00
2017-10-06T02:38:27.819Z,5.65
2017-10-06T02:40:54.440Z,7.18
2017-10-06T02:43:21.054Z,6.87
2017-10-06T02:45:47.744Z,5.75
2017-10-06T02:48:14.355Z,6.85
2017-10-06T02:50:41.020Z,6.68
2017-10-06T02:53:07.646Z,5.03
2017-10-06T02:55:34.256Z,6.03
2017-10-06T02:58:00.946Z,6.05
2017-10-06T03:00:27.572Z,6.25
2017-10-06T03:02:54.191Z,5.40
2017-10-06T03:05:20.807Z,7.55
2017-10-06T03:07:47.499Z,6.80
2017-10-06T03:10:14.118Z,6.25
2017-10-06T03:12:40.732Z,6.45
2017-10-06T03:15:07.359Z,7.37
2017-10-06T03:17:33.978Z,7.78
2017-10-06T03:20:00.590Z,6.40
2017-10-06T03:22:27.219Z,6.70
2017-10-06T03:24:53.831Z,8.57
2017-10-06T03:27:20.443Z,7.55
2017-10-06T03:29:47.074Z,7.80
2017-10-06T03:32:13.685Z,6.65
2017-10-06T03:34:40.307Z,7.20
2017-10-06T03:37:06.918Z,6.82
2017-10-06T03:39:33.539Z,7.93
2017-10-06T03:42:00.166Z,7.40
2017-10-06T03:44:26.878Z,7.72
2017-10-06T03:46:53.486Z,6.60
2017-10-06T03:49:20.158Z,7.62
2017-10-06T03:51:46.771Z,7.15
2017-10-06T03:54:13.389Z,7.07
2017-10-06T03:56:40.019Z,8.50
2017-10-06T03:59:06.640Z,7.47
2017-10-06T04:01:33.251Z,6.47
2017-10-06T04:03:59.876Z,6.32
2017-10-06T04:06:26.497Z,5.82
2017-10-06T04:08:53.106Z,6.30
2017-10-06T04:11:19.743Z,9.50
2017-10-06T04:13:46.360Z,8.00
2017-10-06T04:16:12.972Z,7.75
2017-10-06T04:18:39.662Z,6.97
2017-10-06T04:21:06.271Z,7.10
2017-10-06T04:23:32.899Z,8.30
2017-10-06T04:25:59.538Z,7.45
2017-10-06T04:28:26.159Z,6.78
2017-10-06T04:30:52.790Z,7.53
2017-10-06T04:33:19.403Z,6.78
2017-10-06T04:35:46.018Z,7.62
2017-10-06T04:38:12.645Z,6.75
2017-10-06T04:40:39.271Z,7.72
2017-10-06T04:43:05.882Z,8.07
2017-10-06T04:45:32.512Z,6.43
2017-10-06T04:47:59.186Z,7.60
2017-10-06T04:50:25.821Z,7.78
2017-10-06T04:52:52.427Z,7.82
2017-10-06T04:55:19.031Z,7.70
2017-10-06T04:57:45.670Z,6.83
2017-10-06T05:00:12.278Z,6.35
2017-10-06T05:02:38.890Z,7.65
2017-10-06T05:05:05.527Z,7.55
2017-10-06T05:07:32.143Z,6.00
2017-10-06T05:09:58.839Z,7.75
2017-10-06T05:12:25.475Z,9.75
2017-10-06T05:14:52.087Z,7.05
2017-10-06T05:17:18.708Z,6.30
2017-10-06T05:19:45.331Z,7.85
2017-10-06T05:22:11.947Z,7.35
2017-10-06T05:24:38.676Z,7.03
2017-10-06T05:27:05.307Z,7.22
2017-10-06T05:29:31.954Z,6.85
2017-10-06T05:31:58.567Z,7.25
2017-10-06T05:34:25.200Z,7.80
2017-10-06T05:36:51.811Z,7.57
2017-10-06T05:39:18.442Z,7.62
2017-10-06T05:41:45.051Z,6.07
2017-10-06T05:44:11.683Z,6.72
2017-10-06T05:46:38.312Z,7.95
2017-10-06T05:49:04.918Z,7.22
2017-10-06T05:51:31.527Z,6.90
2017-10-06T05:53:58.242Z,8.68
2017-10-06T05:56:24.916Z,5.50
2017-10-06T05:58:51.547Z,6.62
2017-10-06T06:01:18.297Z,7.07
2017-10-06T06:03:44.911Z,6.55
2017-10-06T06:06:11.641Z,8.07
2017-10-06T06:08:38.318Z,6.00
2017-10-06T06:11:04.935Z,6.53
2017-10-06T06:13:31.563Z,6.70
2017-10-06T06:15:58.234Z,5.72
2017-10-06T06:18:24.855Z,6.10
2017-10-06T06:20:51.475Z,6.50
2017-10-06T06:23:18.083Z,6.47
2017-10-06T06:25:44.707Z,6.47
2017-10-06T06:28:11.324Z,6.18
2017-10-06T06:30:37.931Z,6.75
2017-10-06T06:33:04.565Z,6.30
2017-10-06T06:35:31.244Z,5.37
2017-10-06T06:37:57.945Z,5.62
2017-10-06T06:40:24.576Z,5.80
2017-10-06T06:42:51.223Z,6.35
2017-10-06T06:45:17.848Z,6.68
2017-10-06T06:47:44.458Z,5.97
2017-10-06T06:50:11.142Z,4.22
2017-10-06T06:52:37.766Z,6.40
2017-10-06T06:55:04.379Z,5.37
2017-10-06T06:57:30.986Z,6.50
2017-10-06T06:59:57.612Z,5.75
2017-10-06T07:02:24.232Z,5.70
2017-10-06T07:04:50.843Z,6.45
2017-10-06T07:07:17.470Z,6.30
2017-10-06T07:09:44.102Z,5.65
2017-10-06T07:12:10.718Z,5.85
2017-10-06T07:14:37.351Z,6.03
2017-10-06T07:17:03.960Z,6.20
2017-10-06T07:19:30.567Z,5.65
2017-10-06T07:21:57.198Z,7.05
2017-10-06T07:24:23.808Z,6.05
2017-10-06T07:26:50.425Z,7.15
2017-10-06T07:29:17.046Z,5.65
2017-10-06T07:31:43.660Z,4.85
2017-10-06T07:34:10.275Z,5.50
2017-10-06T07:36:36.894Z,5.80
2017-10-06T07:39:03.504Z,6.15
2017-10-06T07:41:30.156Z,6.18
2017-10-06T07:43:56.764Z,5.07
2017-10-06T07:46:23.471Z,6.10
2017-10-06T07:48:50.092Z,5.97
2017-10-06T07:51:16.712Z,6.80
2017-10-06T07:53:43.456Z,5.70
2017-10-06T07:56:10.076Z,6.40
2017-10-06T07:58:36.703Z,6.30
2017-10-06T08:01:03.323Z,5.85
2017-10-06T08:03:29.935Z,6.35
2017-10-06T08:05:56.566Z,6.50
2017-10-06T08:08:23.184Z,6.68
2017-10-06T08:10:49.817Z,5.80
2017-10-06T08:13:16.439Z,5.40
2017-10-06T08:15:43.097Z,5.10
2017-10-06T08:18:09.715Z,5.82
2017-10-06T08:20:36.361Z,5.20
2017-10-06T08:23:02.966Z,5.80
2017-10-06T08:25:29.594Z,5.62
2017-10-06T08:27:56.230Z,4.87
2017-10-06T08:30:22.948Z,5.05
2017-10-06T08:32:49.562Z,4.95
2017-10-06T08:35:16.187Z,5.45
2017-10-06T08:37:42.890Z,5.07
2017-10-06T08:40:09.494Z,6.00
2017-10-06T08:42:36.114Z,5.62
2017-10-06T08:45:02.732Z,5.93
2017-10-06T08:47:29.344Z,5.12
2017-10-06T08:49:56.057Z,4.68
2017-10-06T08:52:22.669Z,4.80
2017-10-06T08:54:49.335Z,5.40
2017-10-06T08:57:15.963Z,4.85
2017-10-06T08:59:42.603Z,4.05
2017-10-06T09:02:09.219Z,5.28
2017-10-06T09:04:35.850Z,5.00
2017-10-06T09:07:02.455Z,5.57
2017-10-06T09:09:29.067Z,5.90
2017-10-06T09:11:55.696Z,5.22
2017-10-06T09:14:22.303Z,4.93
2017-10-06T09:16:48.914Z,4.78
2017-10-06T09:19:15.618Z,4.90
2017-10-06T09:21:42.226Z,4.75
2017-10-06T09:24:08.830Z,4.32
2017-10-06T09:26:35.461Z,4.78
2017-10-06T09:29:02.067Z,4.85
2017-10-06T09:31:28.671Z,4.35
2017-10-06T09:33:55.308Z,3.70
2017-10-06T09:36:21.923Z,6.47
2017-10-06T09:38:48.620Z,4.70
2017-10-06T09:41:15.247Z,4.45
2017-10-06T09:43:41.860Z,4.00
2017-10-06T09:46:08.462Z,4.93
2017-10-06T09:48:35.094Z,4.20
2017-10-06T09:51:01.707Z,3.95
2017-10-06T09:53:28.354Z,4.37
2017-10-06T09:55:54.996Z,3.90
2017-10-06T09:58:21.609Z,4.10
2017-10-06T10:00:48.231Z,4.00
2017-10-06T10:03:14.840Z,3.83
2017-10-06T10:05:41.466Z,4.30
2017-10-06T10:08:08.090Z,5.50
2017-10-06T10:10:34.700Z,3.58
2017-10-06T10:13:01.323Z,3.85
2017-10-06T10:15:27.931Z,3.78
2017-10-06T10:17:54.539Z,4.55
2017-10-06T10:20:21.182Z,3.17
2017-10-06T10:22:47.786Z,4.25
2017-10-06T10:25:14.386Z,3.58
2017-10-06T10:27:41.033Z,4.30
2017-10-06T10:30:07.635Z,3.80
2017-10-06T10:32:34.296Z,4.15
2017-10-06T10:35:01.054Z,4.10
2017-10-06T10:37:27.671Z,4.60
2017-10-06T10:39:54.303Z,3.53
2017-10-06T10:42:20.911Z,4.07
2017-10-06T10:44:47.516Z,4.10
2017-10-06T10:47:14.212Z,3.97
2017-10-06T10:49:40.848Z,5.70
2017-10-06T10:52:07.468Z,4.47
2017-10-06T10:54:34.075Z,4.60
2017-10-06T10:57:00.684Z,3.42
2017-10-06T10:59:27.302Z,3.15
2017-10-06T11:01:53.947Z,3.90
2017-10-06T11:04:20.559Z,5.00
2017-10-06T11:06:47.187Z,3.65
2017-10-06T11:09:13.863Z,3.70
2017-10-06T11:11:40.479Z,3.33
2017-10-06T11:14:07.136Z,4.20
2017-10-06T11:16:33.755Z,3.53
2017-10-06T11:19:00.360Z,3.45
2017-10-06T11:21:26.985Z,3.08
2017-10-06T11:23:53.599Z,3.28
2017-10-06T11:26:20.211Z,3.60
2017-10-06T11:28:47.701Z,4.10
2017-10-06T11:31:15.776Z,3.60
2017-10-06T11:33:45.108Z,3.67
2017-10-06T11:36:11.760Z,4.18
2017-10-06T11:38:38.446Z,3.70
2017-10-06T11:41:05.072Z,3.30
2017-10-06T11:43:31.718Z,3.50
2017-10-06T11:45:58.331Z,3.42
2017-10-06T11:48:24.951Z,3.87
2017-10-06T11:50:51.634Z,3.00
2017-10-06T11:53:18.238Z,3.35
2017-10-06T11:55:44.871Z,3.20
2017-10-06T11:58:11.492Z,3.45
2017-10-06T12:00:38.099Z,3.30
2017-10-06T12:03:04.727Z,3.00
2017-10-06T12:05:31.410Z,3.60
2017-10-06T12:07:58.015Z,3.65
2017-10-06T12:10:24.756Z,2.62
2017-10-06T12:12:51.391Z,3.35
2017-10-06T12:15:18.004Z,2.95
2017-10-06T12:17:44.631Z,2.80
2017-10-06T12:20:11.240Z,2.78
2017-10-06T12:22:37.852Z,4.43
2017-10-06T12:25:04.480Z,3.47
2017-10-06T12:27:31.124Z,2.90
2017-10-06T12:29:57.731Z,3.10
2017-10-06T12:32:24.360Z,3.15
2017-10-06T12:34:51.040Z,3.97
2017-10-06T12:37:17.648Z,2.80
2017-10-06T12:39:44.279Z,2.92
2017-10-06T12:42:10.959Z,2.47
2017-10-06T12:44:37.562Z,3.58
2017-10-06T12:47:04.194Z,2.90
2017-10-06T12:49:30.799Z,3.83
2017-10-06T12:51:57.411Z,3.20
2017-10-06T12:54:24.036Z,3.42
2017-10-06T12:56:50.646Z,2.55
2017-10-06T12:59:17.263Z,2.47
2017-10-06T13:01:43.898Z,3.20
2017-10-06T13:04:10.503Z,3.80
2017-10-06T13:06:37.152Z,3.42
2017-10-06T13:09:03.780Z,3.80
2017-10-06T13:11:30.407Z,3.53
2017-10-06T13:13:57.011Z,3.55
2017-10-06T13:16:23.633Z,3.72
2017-10-06T13:18:50.232Z,4.10
2017-10-06T13:21:16.838Z,3.60
2017-10-06T13:23:43.468Z,2.83
2017-10-06T13:26:10.079Z,3.30
2017-10-06T13:28:36.682Z,4.03
2017-10-06T13:31:03.312Z,3.50
2017-10-06T13:33:30.007Z,3.97
2017-10-06T13:35:56.633Z,3.42
2017-10-06T13:38:23.236Z,3.70
2017-10-06T13:40:49.842Z,3.80
2017-10-06T13:43:16.471Z,3.40
2017-10-06T13:45:43.155Z,3.53
2017-10-06T13:48:09.799Z,3.85
2017-10-06T13:50:36.420Z,3.50
2017-10-06T13:53:03.031Z,5.43
2017-10-06T13:55:29.642Z,4.00
2017-10-06T13:57:56.270Z,4.20
2017-10-06T14:00:22.873Z,4.60
2017-10-06T14:02:49.535Z,4.28
2017-10-06T14:05:16.154Z,3.80
2017-10-06T14:07:42.811Z,4.10
2017-10-06T14:10:09.450Z,4.20
2017-10-06T14:12:36.067Z,4.10
2017-10-06T14:15:02.727Z,3.17
2017-10-06T14:17:29.336Z,3.30
2017-10-06T14:19:56.007Z,2.95
2017-10-06T14:22:22.615Z,3.70
2017-10-06T14:24:49.226Z,4.43
2017-10-06T14:27:15.843Z,3.75
2017-10-06T14:29:42.561Z,4.22
2017-10-06T14:32:09.200Z,4.28
2017-10-06T14:34:35.806Z,3.67
2017-10-06T14:37:02.413Z,4.70
2017-10-06T14:39:29.033Z,4.70
2017-10-06T14:41:55.644Z,4.15
2017-10-06T14:44:22.290Z,5.22
2017-10-06T14:46:48.894Z,5.82
2017-10-06T14:49:15.498Z,5.10
2017-10-06T14:51:42.127Z,4.70
2017-10-06T14:54:08.786Z,4.45
2017-10-06T14:56:35.392Z,5.25
2017-10-06T14:59:02.027Z,4.97
2017-10-06T15:01:28.639Z,4.87
2017-10-06T15:03:55.249Z,4.40
2017-10-06T15:06:21.872Z,3.58
2017-10-06T15:08:48.480Z,3.70
2017-10-06T15:11:15.120Z,3.00
2017-10-06T15:13:41.764Z,3.10
2017-10-06T15:16:08.460Z,4.43
2017-10-06T15:18:35.085Z,4.03
2017-10-06T15:21:01.702Z,4.20
2017-10-06T15:23:28.415Z,4.15
2017-10-06T15:25:55.025Z,3.78
2017-10-06T15:28:21.648Z,3.90
2017-10-06T15:30:48.334Z,3.10
2017-10-06T15:33:15.071Z,4.65
2017-10-06T15:35:41.670Z,5.28
2017-10-06T15:38:08.280Z,4.10
2017-10-06T15:40:34.904Z,4.35
2017-10-06T15:43:01.526Z,4.65
2017-10-06T15:45:28.168Z,5.22
2017-10-06T15:47:54.790Z,5.22
2017-10-06T15:50:21.407Z,4.85
2017-10-06T15:52:48.031Z,5.57
2017-10-06T15:55:14.640Z,5.43
2017-10-06T15:57:41.308Z,6.47
2017-10-06T16:00:07.999Z,4.80
2017-10-06T16:02:34.681Z,5.47
2017-10-06T16:05:01.287Z,4.80
2017-10-06T16:07:27.915Z,5.43
2017-10-06T16:09:54.559Z,5.15
2017-10-06T16:12:21.167Z,5.85
2017-10-06T16:14:47.800Z,5.35
2017-10-06T16:17:14.415Z,5.32
2017-10-06T16:19:41.115Z,5.00
2017-10-06T16:22:07.745Z,5.15
2017-10-06T16:24:34.395Z,5.87
2017-10-06T16:27:01.515Z,4.50
2017-10-06T16:29:28.183Z,5.75
2017-10-06T16:31:54.822Z,4.50
2017-10-06T16:34:21.427Z,6.30
2017-10-06T16:36:48.050Z,4.90
2017-10-06T16:39:14.654Z,5.55
2017-10-06T16:41:41.264Z,4.53
2017-10-06T16:44:07.895Z,4.87
2017-10-06T16:46:35.443Z,4.80
2017-10-06T16:49:02.057Z,4.87
2017-10-06T16:51:28.678Z,5.85
2017-10-06T16:53:55.287Z,5.55
2017-10-06T16:56:21.970Z,4.87
2017-10-06T16:58:48.581Z,5.45
2017-10-06T17:01:15.186Z,5.97
2017-10-06T17:03:41.828Z,5.72
2017-10-06T17:06:08.448Z,5.28
2017-10-06T17:08:35.056Z,4.53
2017-10-06T17:11:01.678Z,5.82
2017-10-06T17:13:28.284Z,5.62
2017-10-06T17:15:54.939Z,5.95
2017-10-06T17:18:21.563Z,5.70
2017-10-06T17:20:48.176Z,5.37
2017-10-06T17:23:14.784Z,5.00
2017-10-06T17:25:41.411Z,5.40
2017-10-06T17:28:08.018Z,5.80
2017-10-06T17:30:34.628Z,5.40
2017-10-06T17:33:01.303Z,6.30
2017-10-06T17:35:27.915Z,6.12
2017-10-06T17:37:54.527Z,4.30
2017-10-06T17:40:21.151Z,4.65
2017-10-06T17:42:47.763Z,4.87
2017-10-06T17:45:14.366Z,4.93
2017-10-06T17:47:41.046Z,6.10
2017-10-06T17:50:07.655Z,4.75
2017-10-06T17:52:34.263Z,5.40
2017-10-06T17:55:00.892Z,5.35
2017-10-06T17:57:27.507Z,5.00
2017-10-06T17:59:54.115Z,5.35
2017-10-06T18:02:20.735Z,4.70
2017-10-06T18:04:47.350Z,5.05
2017-10-06T18:07:14.055Z,5.20
2017-10-06T18:09:40.796Z,5.10
2017-10-06T18:12:07.407Z,4.35
2017-10-06T18:14:34.075Z,4.80
2017-10-06T18:17:00.710Z,5.82
2017-10-06T18:19:27.320Z,5.07
2017-10-06T18:21:53.931Z,4.18
2017-10-06T18:24:20.564Z,5.32
2017-10-06T18:26:47.174Z,4.87
2017-10-06T18:29:13.791Z,4.35
2017-10-06T18:31:40.419Z,4.45
2017-10-06T18:34:07.037Z,4.25
2017-10-06T18:36:33.644Z,4.93
2017-10-06T18:39:00.267Z,5.05
2017-10-06T18:41:26.876Z,3.85
2017-10-06T18:43:53.486Z,4.80
2017-10-06T18:46:20.115Z,4.60
2017-10-06T18:48:46.815Z,4.10
2017-10-06T18:51:13.432Z,5.37
2017-10-06T18:53:40.046Z,5.12
2017-10-06T18:56:06.660Z,4.55
2017-10-06T18:58:33.281Z,4.53
2017-10-06T19:00:59.884Z,4.60
2017-10-06T19:03:26.499Z,4.90
2017-10-06T19:05:53.123Z,4.65
2017-10-06T19:08:19.735Z,5.60
2017-10-06T19:10:46.347Z,4.50
2017-10-06T19:13:12.976Z,5.68
2017-10-06T19:15:39.641Z,4.03
2017-10-06T19:18:06.251Z,4.87
2017-10-06T19:20:32.876Z,4.85
2017-10-06T19:22:59.482Z,5.90
2017-10-06T19:25:26.107Z,5.57
2017-10-06T19:27:52.734Z,5.00
2017-10-06T19:30:19.347Z,5.40
2017-10-06T19:32:45.980Z,4.93
2017-10-06T19:35:12.592Z,5.15
2017-10-06T19:37:39.203Z,5.60
2017-10-06T19:40:05.832Z,6.05
2017-10-06T19:42:32.439Z,5.18
2017-10-06T19:44:59.055Z,5.60
2017-10-06T19:47:25.682Z,5.60
2017-10-06T19:49:52.379Z,5.05
2017-10-06T19:52:18.990Z,5.62
2017-10-06T19:54:45.621Z,5.32
2017-10-06T19:57:12.233Z,5.22
2017-10-06T19:59:38.849Z,6.05
2017-10-06T20:02:05.483Z,5.90
2017-10-06T20:04:32.095Z,4.40
2017-10-06T20:06:58.747Z,5.50
2017-10-06T20:09:25.376Z,5.72
2017-10-06T20:11:51.991Z,5.40
2017-10-06T20:14:18.671Z,5.72
2017-10-06T20:16:45.303Z,5.00
2017-10-06T20:19:11.948Z,5.87
2017-10-06T20:21:38.554Z,5.00
2017-10-06T20:24:05.194Z,5.80
2017-10-06T20:26:31.863Z,5.75
2017-10-06T20:28:58.472Z,5.80
2017-10-06T20:31:25.107Z,5.60
2017-10-06T20:33:51.719Z,5.45
2017-10-06T20:36:18.418Z,5.70
2017-10-06T20:38:45.048Z,5.18
2017-10-06T20:41:11.670Z,6.22
2017-10-06T20:43:38.274Z,6.62
2017-10-06T20:46:04.908Z,4.95
2017-10-06T20:48:31.515Z,6.57
2017-10-06T20:50:58.123Z,6.20
2017-10-06T20:53:24.751Z,5.57
2017-10-06T20:55:51.431Z,6.15
2017-10-06T20:58:18.067Z,6.50
2017-10-06T21:00:44.692Z,5.80
2017-10-06T21:03:11.347Z,6.40
2017-10-06T21:05:37.959Z,7.20
2017-10-06T21:08:04.579Z,6.20
2017-10-06T21:10:31.262Z,5.68
2017-10-06T21:12:57.871Z,8.20
2017-10-06T21:15:24.495Z,6.70
2017-10-06T21:17:51.182Z,7.62
2017-10-06T21:20:17.824Z,6.15
2017-10-06T21:22:44.457Z,7.90
2017-10-06T21:25:11.098Z,6.45
2017-10-06T21:27:37.715Z,8.20
2017-10-06T21:30:04.380Z,7.28
2017-10-06T21:32:30.982Z,6.95
2017-10-06T21:34:57.667Z,8.63
2017-10-06T21:37:24.287Z,7.47
2017-10-06T21:39:50.941Z,7.53
2017-10-06T21:42:17.550Z,7.40
2017-10-06T21:44:44.211Z,8.20
2017-10-06T21:47:10.814Z,6.85
2017-10-06T21:49:37.530Z,7.40
2017-10-06T21:52:04.271Z,7.45
2017-10-06T21:54:30.878Z,6.50
2017-10-06T21:56:57.487Z,6.68
2017-10-06T21:59:24.115Z,7.50
2017-10-06T22:01:50.719Z,7.25
2017-10-06T22:04:17.327Z,6.85
2017-10-06T22:06:43.956Z,7.55
2017-10-06T22:09:10.566Z,7.65
2017-10-06T22:11:37.182Z,7.00
2017-10-06T22:14:03.817Z,7.43
2017-10-06T22:16:30.427Z,6.70
2017-10-06T22:18:57.059Z,8.15
2017-10-06T22:21:23.739Z,9.27
2017-10-06T22:23:50.351Z,7.18
2017-10-06T22:26:17.014Z,8.98
2017-10-06T22:28:43.642Z,11.55
2017-10-06T22:31:10.256Z,8.90
2017-10-06T22:33:36.995Z,7.00
2017-10-06T22:36:03.598Z,8.50
2017-10-06T22:38:30.214Z,7.70
2017-10-06T22:40:56.950Z,7.95
2017-10-06T22:43:23.553Z,7.28
2017-10-06T22:45:50.165Z,8.20
2017-10-06T22:48:16.795Z,8.85
2017-10-06T22:50:43.405Z,8.32
2017-10-06T22:53:10.006Z,8.00
2017-10-06T22:55:36.627Z,8.55
2017-10-06T22:58:03.244Z,7.35
2017-10-06T23:00:29.913Z,7.40
2017-10-06T23:02:56.534Z,6.93
2017-10-06T23:05:23.148Z,5.82
2017-10-06T23:07:49.766Z,7.45
2017-10-06T23:10:16.390Z,6.47
2017-10-06T23:12:42.994Z,6.53
2017-10-06T23:15:09.616Z,7.53
2017-10-06T23:17:36.243Z,8.05
2017-10-06T23:20:02.854Z,7.15
2017-10-06T23:22:29.468Z,8.90
2017-10-06T23:24:56.087Z,8.07
2017-10-06T23:27:22.697Z,7.43
2017-10-06T23:29:49.311Z,7.15
2017-10-06T23:32:15.934Z,8.05
2017-10-06T23:34:42.546Z,8.40
2017-10-06T23:37:09.203Z,8.00
2017-10-06T23:39:35.944Z,7.85
2017-10-06T23:42:02.559Z,7.53
2017-10-06T23:44:29.170Z,7.55
2017-10-06T23:46:55.799Z,7.85
2017-10-06T23:49:22.489Z,8.02
2017-10-06T23:51:49.097Z,8.10
2017-10-06T23:54:15.728Z,6.93
2017-10-06T23:56:42.339Z,8.02
2017-10-06T23:59:08.986Z,8.10
